createdAt,value
2019-04-23T00:00:56.335Z,61.60
2019-04-23T00:03:30.294Z,61.60
2019-04-23T00:06:02.374Z,61.60
2019-04-23T00:08:25.779Z,61.50
2019-04-23T00:10:59.064Z,61.60
2019-04-23T00:13:30.305Z,61.60
2019-04-23T00:16:13.997Z,61.70
2019-04-23T00:18:49.481Z,61.90
2019-04-23T00:21:23.516Z,61.90
2019-04-23T00:23:53.345Z,61.70
2019-04-23T00:26:25.602Z,62.10
2019-04-23T00:28:58.941Z,62.50
2019-04-23T00:31:39.234Z,62.60
2019-04-23T00:33:57.714Z,62.40
2019-04-23T00:38:54.005Z,62.80
2019-04-23T00:41:33.364Z,62.80
2019-04-23T00:44:15.188Z,62.70
2019-04-23T00:49:07.416Z,62.90
2019-04-23T00:51:32.050Z,62.90
2019-04-23T00:54:08.037Z,62.70
2019-04-23T00:59:08.308Z,63.60
2019-04-23T01:01:42.752Z,63.50
2019-04-23T01:04:08.031Z,63.60
2019-04-23T01:06:37.814Z,63.90
2019-04-23T01:09:10.425Z,63.90
2019-04-23T01:11:44.848Z,63.20
2019-04-23T01:14:13.670Z,64.00
2019-04-23T01:16:42.505Z,64.50
2019-04-23T01:19:31.705Z,64.60
2019-04-23T01:21:38.861Z,64.60
2019-04-23T01:24:29.731Z,64.50
2019-04-23T01:27:49.206Z,64.30
2019-04-23T01:30:10.116Z,65.40
2019-04-23T01:32:38.287Z,65.50
2019-04-23T01:37:41.195Z,65.50
2019-04-23T01:45:19.800Z,66.80
2019-04-23T01:47:50.049Z,66.30
2019-04-23T01:50:22.838Z,66.30
2019-04-23T01:53:14.950Z,66.80
2019-04-23T01:55:31.529Z,66.90
2019-04-23T02:03:10.909Z,67.80
2019-04-23T02:05:27.513Z,67.90
2019-04-23T02:08:11.080Z,67.60
2019-04-23T02:10:44.350Z,67.50
2019-04-23T02:13:16.674Z,68.10
2019-04-23T02:15:42.451Z,68.30
2019-04-23T02:20:49.744Z,68.60
2019-04-23T02:23:24.933Z,68.60
2019-04-23T02:26:10.737Z,69.00
2019-04-23T02:28:47.603Z,68.80
2019-04-23T02:33:43.890Z,69.80
2019-04-23T02:36:11.262Z,70.10
2019-04-23T02:41:09.025Z,70.50
2019-04-23T02:43:59.197Z,70.90
2019-04-23T02:46:08.140Z,71.00
2019-04-23T02:48:44.367Z,71.20
2019-04-23T02:51:10.946Z,71.10
2019-04-23T02:53:53.522Z,71.40
2019-04-23T02:56:21.554Z,71.40
2019-04-23T03:06:18.912Z,72.50
2019-04-23T03:09:09.826Z,72.60
2019-04-23T03:11:26.184Z,72.90
2019-04-23T03:13:54.235Z,73.30
2019-04-23T03:19:00.664Z,73.80
2019-04-23T03:21:52.848Z,73.70
2019-04-23T03:27:16.544Z,74.10
2019-04-23T03:37:23.342Z,74.90
2019-04-23T03:42:38.647Z,75.10
2019-04-23T03:47:31.989Z,75.60
2019-04-23T03:49:56.165Z,75.60
2019-04-23T03:54:49.220Z,76.30
2019-04-23T03:57:24.793Z,76.90
2019-04-23T04:00:05.820Z,77.10
2019-04-23T04:04:51.877Z,77.60
2019-04-23T04:10:08.725Z,77.80
2019-04-23T04:12:29.930Z,78.10
2019-04-23T04:17:26.698Z,78.60
2019-04-23T04:22:37.458Z,79.40
2019-04-23T04:30:12.394Z,80.40
2019-04-23T04:32:36.618Z,80.30
2019-04-23T04:35:18.835Z,80.90
2019-04-23T04:40:18.148Z,80.40
2019-04-23T04:45:14.288Z,81.60
2019-04-23T04:47:42.499Z,81.10
2019-04-23T04:52:50.859Z,81.80
2019-04-23T04:55:12.028Z,81.90
2019-04-23T05:03:04.452Z,82.40
2019-04-23T05:10:25.232Z,84.20
2019-04-23T05:12:54.998Z,84.30
2019-04-23T05:18:08.116Z,85.20
2019-04-23T05:23:06.110Z,85.90
2019-04-23T05:25:31.766Z,86.10
2019-04-23T05:28:07.897Z,86.50
2019-04-23T05:30:39.737Z,86.60
2019-04-23T05:36:04.987Z,87.30
2019-04-23T05:40:45.325Z,88.10
2019-04-23T05:43:12.376Z,88.80
2019-04-23T05:45:51.156Z,90.00
2019-04-23T05:53:42.446Z,90.00
2019-04-23T05:55:55.378Z,89.50
2019-04-23T05:58:28.624Z,89.50
2019-04-23T06:01:41.689Z,89.60
2019-04-23T06:03:58.149Z,89.50
2019-04-23T06:08:58.636Z,89.60
2019-04-23T06:11:39.750Z,89.20
2019-04-23T06:14:06.338Z,89.30
2019-04-23T06:16:41.185Z,89.90
2019-04-23T06:19:07.697Z,88.90
2019-04-23T06:21:44.764Z,89.10
2019-04-23T06:24:16.308Z,89.20
2019-04-23T06:31:44.023Z,89.10
2019-04-23T06:34:16.631Z,89.10
2019-04-23T06:36:46.593Z,88.70
2019-04-23T06:39:17.726Z,88.70
2019-04-23T06:41:50.188Z,89.30
2019-04-23T06:44:32.217Z,88.00
2019-04-23T06:47:01.727Z,86.60
2019-04-23T06:49:27.076Z,85.70
2019-04-23T06:54:37.429Z,82.90
2019-04-23T06:59:37.265Z,82.80
2019-04-23T07:04:43.390Z,82.20
2019-04-23T07:07:31.403Z,81.50
2019-04-23T07:09:42.407Z,81.20
2019-04-23T07:12:19.886Z,80.90
2019-04-23T07:17:13.549Z,81.80
2019-04-23T07:19:46.701Z,80.80
2019-04-23T07:22:21.581Z,79.50
2019-04-23T07:24:49.134Z,78.90
2019-04-23T07:30:03.933Z,79.20
2019-04-23T07:32:38.918Z,79.00
2019-04-23T07:35:16.051Z,78.00
2019-04-23T07:37:43.188Z,77.80
2019-04-23T07:43:08.761Z,78.30
2019-04-23T07:45:54.830Z,78.50
2019-04-23T07:48:23.837Z,77.00
2019-04-23T07:50:52.012Z,76.00
2019-04-23T07:56:02.140Z,76.40
2019-04-23T07:58:30.385Z,76.30
2019-04-23T08:01:00.985Z,75.60
2019-04-23T08:03:29.021Z,75.90
2019-04-23T08:06:00.566Z,76.20
2019-04-23T08:08:33.305Z,74.60
2019-04-23T08:13:53.398Z,75.40
2019-04-23T08:21:19.283Z,75.30
2019-04-23T08:24:10.662Z,74.00
2019-04-23T08:26:59.173Z,73.70
2019-04-23T08:32:12.311Z,73.50
2019-04-23T08:42:33.082Z,72.50
2019-04-23T08:55:49.562Z,71.10
2019-04-23T08:58:25.882Z,71.70
2019-04-23T09:03:25.141Z,71.20
2019-04-23T09:06:00.768Z,70.60
2019-04-23T09:08:27.849Z,70.40
2019-04-23T09:11:05.119Z,72.10
2019-04-23T09:13:52.288Z,69.50
2019-04-23T09:21:02.136Z,69.40
2019-04-23T09:28:41.939Z,68.20
2019-04-23T09:31:18.698Z,68.80
2019-04-23T09:33:52.162Z,67.90
2019-04-23T09:36:37.841Z,68.30
2019-04-23T09:39:15.370Z,67.90
2019-04-23T09:42:09.151Z,67.60
2019-04-23T09:44:58.506Z,67.40
2019-04-23T09:47:41.431Z,67.60
2019-04-23T09:50:12.371Z,67.10
2019-04-23T09:52:46.671Z,67.50
2019-04-23T09:55:15.481Z,67.00
2019-04-23T09:57:46.604Z,68.60
2019-04-23T10:00:16.996Z,68.90
2019-04-23T10:02:34.299Z,69.90
2019-04-23T10:05:04.076Z,69.80
2019-04-23T10:07:30.030Z,69.30
2019-04-23T10:09:51.769Z,68.90
2019-04-23T10:12:24.110Z,70.20
2019-04-23T10:15:07.220Z,69.10
2019-04-23T10:17:28.479Z,69.20
2019-04-23T10:19:58.342Z,68.90
2019-04-23T10:22:29.476Z,67.40
2019-04-23T10:24:59.485Z,68.10
2019-04-23T10:27:29.521Z,67.70
2019-04-23T10:29:59.606Z,67.10
2019-04-23T10:32:29.798Z,66.80
2019-04-23T10:35:11.911Z,64.40
2019-04-23T10:37:36.825Z,63.30
2019-04-23T10:40:05.401Z,64.40
2019-04-23T10:42:35.874Z,67.10
2019-04-23T10:45:40.882Z,64.00
2019-04-23T10:51:18.086Z,65.00
2019-04-23T10:56:40.805Z,63.50
2019-04-23T10:59:27.222Z,65.30
2019-04-23T11:02:15.871Z,63.80
2019-04-23T11:07:26.930Z,63.30
2019-04-23T11:09:53.066Z,64.30
2019-04-23T11:12:24.538Z,65.00
2019-04-23T11:14:53.418Z,64.20
2019-04-23T11:17:30.628Z,64.40
2019-04-23T11:22:36.137Z,63.40
2019-04-23T11:24:50.097Z,62.30
2019-04-23T11:27:22.172Z,62.90
2019-04-23T11:32:44.137Z,62.60
2019-04-23T11:37:36.345Z,60.90
2019-04-23T11:42:26.199Z,62.00
2019-04-23T11:44:56.502Z,60.40
2019-04-23T11:48:14.700Z,59.00
2019-04-23T11:50:25.356Z,59.80
2019-04-23T11:52:35.567Z,62.30
2019-04-23T11:55:03.167Z,61.80
2019-04-23T12:00:09.813Z,60.50
2019-04-23T12:03:02.454Z,59.20
2019-04-23T12:05:58.263Z,60.40
2019-04-23T12:08:37.834Z,60.80
2019-04-23T12:11:51.990Z,61.00
2019-04-23T12:14:06.169Z,61.60
2019-04-23T12:16:43.198Z,61.60
2019-04-23T12:19:25.405Z,61.90
2019-04-23T12:21:41.146Z,63.20
2019-04-23T12:24:29.101Z,64.10
2019-04-23T12:26:56.252Z,63.30
2019-04-23T12:29:13.964Z,63.30
2019-04-23T12:31:38.296Z,63.30
2019-04-23T12:34:14.957Z,63.50
2019-04-23T12:37:09.511Z,64.90
2019-04-23T12:39:32.974Z,64.00
2019-04-23T12:42:19.734Z,64.50
2019-04-23T12:44:38.780Z,65.00
2019-04-23T12:47:17.215Z,63.80
2019-04-23T12:49:57.759Z,64.90
2019-04-23T12:52:11.605Z,65.60
2019-04-23T12:57:29.970Z,64.50
2019-04-23T12:59:44.364Z,64.60
2019-04-23T13:04:49.041Z,64.90
2019-04-23T13:07:17.782Z,65.40
2019-04-23T13:09:52.495Z,65.40
2019-04-23T13:12:33.260Z,63.90
2019-04-23T13:14:58.666Z,65.00
2019-04-23T13:17:29.687Z,65.50
2019-04-23T13:19:58.246Z,65.20
2019-04-23T13:22:31.862Z,63.90
2019-04-23T13:25:32.572Z,66.80
2019-04-23T13:28:01.984Z,65.30
2019-04-23T13:33:02.664Z,65.20
2019-04-23T13:40:39.071Z,65.60
2019-04-23T13:43:08.852Z,66.30
2019-04-23T13:45:56.443Z,66.20
2019-04-23T13:50:47.509Z,66.60
2019-04-23T13:55:34.655Z,67.70
2019-04-23T14:03:09.674Z,67.80
2019-04-23T14:06:01.216Z,68.50
2019-04-23T14:11:03.640Z,69.30
2019-04-23T14:18:51.613Z,69.30
2019-04-23T14:21:14.163Z,68.00
2019-04-23T14:26:18.829Z,67.40
2019-04-23T14:28:41.846Z,68.00
2019-04-23T14:31:13.080Z,68.50
2019-04-23T14:36:17.681Z,68.50
2019-04-23T14:43:57.888Z,69.10
2019-04-23T14:46:38.777Z,69.40
2019-04-23T14:49:04.196Z,68.70
2019-04-23T14:53:48.113Z,69.00
2019-04-23T14:56:35.533Z,68.70
2019-04-23T14:59:07.780Z,68.60
2019-04-23T15:02:02.369Z,68.70
2019-04-23T15:04:14.692Z,68.20
2019-04-23T15:06:52.059Z,68.20
2019-04-23T15:09:22.284Z,69.00
2019-04-23T15:14:16.844Z,68.40
2019-04-23T15:19:40.247Z,67.80
2019-04-23T15:22:05.257Z,68.10
2019-04-23T15:24:27.732Z,68.30
2019-04-23T15:29:12.731Z,67.20
2019-04-23T15:34:23.171Z,67.00
2019-04-23T15:39:32.698Z,67.60
2019-04-23T15:42:06.211Z,67.80
2019-04-23T15:44:42.017Z,67.50
2019-04-23T15:47:19.335Z,67.40
2019-04-23T15:49:45.791Z,68.10
2019-04-23T15:52:27.308Z,67.90
2019-04-23T15:54:51.491Z,67.70
2019-04-23T15:57:41.809Z,68.40
2019-04-23T15:59:53.397Z,67.70
2019-04-23T16:01:50.364Z,68.70
2019-04-23T16:04:20.609Z,72.70
2019-04-23T16:06:50.059Z,67.60
2019-04-23T16:09:59.843Z,68.60
2019-04-23T16:12:25.343Z,68.80
2019-04-23T16:17:32.678Z,70.20
2019-04-23T16:20:33.416Z,70.40
2019-04-23T16:22:51.071Z,72.00
2019-04-23T16:25:20.381Z,71.90
2019-04-23T16:28:04.084Z,71.80
2019-04-23T16:30:31.367Z,71.80
2019-04-23T16:38:38.348Z,72.20
2019-04-23T16:41:07.655Z,71.30
2019-04-23T16:43:44.047Z,71.80
2019-04-23T16:46:07.381Z,71.90
2019-04-23T16:51:25.207Z,72.30
2019-04-23T16:53:59.219Z,71.40
2019-04-23T16:56:39.936Z,71.70
2019-04-23T16:58:44.593Z,72.00
2019-04-23T17:01:20.724Z,71.80
2019-04-23T17:09:24.594Z,71.90
2019-04-23T17:13:50.969Z,72.90
2019-04-23T17:21:18.100Z,73.30
2019-04-23T17:28:51.809Z,74.70
2019-04-23T17:33:59.218Z,74.00
2019-04-23T17:42:01.711Z,74.90
2019-04-23T17:44:24.174Z,75.60
2019-04-23T17:46:54.080Z,76.20
2019-04-23T17:49:35.289Z,75.60
2019-04-23T17:51:50.973Z,75.80
2019-04-23T17:54:24.607Z,76.60
2019-04-23T17:57:01.520Z,76.60
2019-04-23T17:59:53.613Z,76.50
2019-04-23T18:02:39.903Z,76.40
2019-04-23T18:04:56.851Z,77.70
2019-04-23T18:07:23.456Z,76.90
2019-04-23T18:09:47.904Z,77.20
2019-04-23T18:12:22.422Z,77.60
2019-04-23T18:14:43.973Z,77.70
2019-04-23T18:20:04.993Z,77.70
2019-04-23T18:22:37.334Z,77.50
2019-04-23T18:27:48.456Z,77.70
2019-04-23T18:30:26.213Z,78.20
2019-04-23T18:35:29.829Z,78.30
2019-04-23T18:40:54.693Z,78.10
2019-04-23T18:43:20.177Z,78.10
2019-04-23T18:45:44.878Z,78.60
2019-04-23T18:51:03.291Z,78.70
2019-04-23T18:58:54.477Z,79.60
2019-04-23T19:01:23.204Z,79.60
2019-04-23T19:04:09.885Z,79.70
2019-04-23T19:06:38.252Z,80.10
2019-04-23T19:09:47.770Z,80.10
2019-04-23T19:12:29.956Z,79.70
2019-04-23T19:19:55.555Z,81.30
2019-04-23T19:25:01.716Z,81.70
2019-04-23T19:27:45.903Z,81.50
2019-04-23T19:30:17.629Z,81.60
2019-04-23T19:32:49.302Z,81.80
2019-04-23T19:35:33.551Z,82.60
2019-04-23T19:40:14.123Z,82.60
2019-04-23T19:42:52.375Z,82.90
2019-04-23T19:45:24.818Z,83.20
2019-04-23T19:47:56.808Z,83.20
2019-04-23T19:50:29.798Z,82.70
2019-04-23T19:53:03.960Z,83.30
2019-04-23T19:55:17.463Z,83.90
2019-04-23T19:57:58.033Z,84.20
2019-04-23T20:00:17.908Z,84.60
2019-04-23T20:03:12.950Z,85.40
2019-04-23T20:05:21.703Z,85.70
2019-04-23T20:08:16.888Z,86.00
2019-04-23T20:10:30.048Z,86.90
2019-04-23T20:12:51.826Z,86.80
2019-04-23T20:15:44.380Z,86.90
2019-04-23T20:18:33.569Z,86.60
2019-04-23T20:20:55.002Z,87.00
2019-04-23T20:23:52.260Z,87.20
2019-04-23T20:32:30.554Z,88.80
2019-04-23T20:36:38.845Z,90.00
2019-04-23T20:39:07.262Z,90.10
2019-04-23T20:42:07.810Z,90.40
2019-04-23T20:49:40.139Z,90.90
2019-04-23T20:52:07.362Z,91.00
2019-04-23T20:54:42.124Z,91.20
2019-04-23T20:57:33.771Z,91.10
2019-04-23T21:05:15.053Z,91.60
2019-04-23T21:07:52.235Z,91.90
2019-04-23T21:12:50.149Z,92.10
2019-04-23T21:15:12.048Z,92.70
2019-04-23T21:17:55.800Z,93.30
2019-04-23T21:22:52.297Z,93.70
2019-04-23T21:25:09.443Z,93.70
2019-04-23T21:27:55.482Z,93.90
2019-04-23T21:30:41.406Z,94.20
2019-04-23T21:33:07.371Z,94.50
2019-04-23T21:36:05.005Z,94.50
2019-04-23T21:38:38.078Z,94.70
2019-04-23T21:41:39.416Z,95.00
2019-04-23T21:44:05.612Z,95.30
2019-04-23T21:46:24.053Z,95.40
2019-04-23T21:51:31.883Z,95.80
2019-04-23T21:56:26.132Z,96.00
2019-04-23T22:01:32.249Z,96.70
2019-04-23T22:04:17.669Z,96.20
2019-04-23T22:09:12.460Z,96.50
2019-04-23T22:11:48.265Z,96.70
2019-04-23T22:16:37.145Z,96.90
2019-04-23T22:24:54.575Z,97.30
2019-04-23T22:26:35.252Z,97.30
2019-04-23T22:29:14.061Z,97.30
2019-04-23T22:34:22.048Z,98.10
2019-04-23T22:36:39.297Z,98.30
2019-04-23T22:39:10.097Z,98.70
2019-04-23T22:41:55.924Z,99.00
2019-04-23T22:44:12.831Z,99.50
2019-04-23T22:46:53.525Z,99.40
2019-04-23T22:54:13.969Z,99.90
2019-04-23T23:02:29.076Z,99.90
2019-04-23T23:05:07.314Z,99.90
2019-04-23T23:07:28.578Z,99.90
2019-04-23T23:10:00.974Z,99.90
2019-04-23T23:12:34.139Z,99.90
2019-04-23T23:15:02.817Z,99.90
2019-04-23T23:17:31.030Z,99.90
2019-04-23T23:20:08.752Z,99.90
2019-04-23T23:22:29.096Z,99.90
2019-04-23T23:25:13.405Z,99.90
2019-04-23T23:27:41.376Z,99.90
2019-04-23T23:32:47.667Z,99.90
2019-04-23T23:35:14.607Z,99.90
2019-04-23T23:37:34.338Z,99.90
2019-04-23T23:42:42.754Z,99.90
2019-04-23T23:45:21.629Z,99.90
2019-04-23T23:47:46.686Z,99.90
2019-04-23T23:50:19.497Z,99.90
2019-04-23T23:53:02.711Z,99.90
2019-04-23T23:55:16.500Z,99.90
2019-04-23T23:57:50.293Z,99.90
